Historyczne dane pomiarowe

Dodano dane terminowe – wersja testowa.

Dane z okresu 1951-2019

Wersja bazy: 1.34 [2019-03-16, lista zmian], aktualizacja planowana na 2019-04-15

Dane meteo z obszaru Polski uzyskane na podstawie danych udostępnionych przez Instytut Meteorologii i Gospodarki Wodnej – Państwowy Instytut Badawczy.

 

Wybierz Datę:    

       

TemperaturaWilgotnośćWiatrCiśnienieOpadyŚniegCzas trwania zjawisk
 Stacja t tx tn tng RH VA  wxwx mslp ppp RRR   cm mm wxwxwxwxwxwxwx
1994-08-14 16.0 19.9 11.4 9.2 56.0- 4.7 2.0---- 0.0------------
1994-08-13 17.9 23.1 15.7 14.7 70.8- 6.3 5.3---- 0.0------------
1994-08-12 17.8 20.7 14.7 12.7 82.5- 8.0 2.0---- 1.6------------
1994-08-11 19.6 25.7 17.1 16.0 76.5- 7.3 3.0---- 5.3------------
1994-08-10 21.6 29.4 13.5 11.0 64.0- 3.3 1.3---- 9.3------------
1994-08-09 20.2 25.5 17.3 15.1 80.5- 4.7 1.3---- 1.6------------
1994-08-08 21.5 27.1 17.9 16.7 76.5- 8.0 0.3---- 22.5------------
1994-08-07 23.6 31.5 16.5 13.9 70.3- 4.7 1.7---- 6.1------------
1994-08-06 25.5 34.0 16.3 13.1 59.3- 4.3 1.7---- 0.0------------
1994-08-05 24.8 34.8 12.7 10.2 60.3- 1.3 0.7---- 0.0------------
1994-08-04 24.1 32.0 14.7 10.8 57.3- 2.0 1.7---- 0.0------------
1994-08-03 24.8 30.9 19.1 16.1 70.3- 4.0 1.3---- 0.0------------
1994-08-02 27.9 35.8 17.3 14.2 60.5- 2.0 2.3---- 0.0------------
1994-08-01 29.3 37.9 17.7 14.8 53.8- 3.3 1.3---- 0.0------------
1994-07-31 28.8 38.9 17.5 13.5 50.0- 2.0 1.3---- 0.0------------
1994-07-30 27.2 37.0 15.4 12.6 51.8- 0.3 0.7---- 0.0------------
1994-07-29 27.5 38.0 15.7 12.0 53.0- 1.0 1.0---- 0.0------------
1994-07-28 26.6 36.0 14.3 10.4 55.5- 2.0 0.0---- 0.0------------
1994-07-27 26.7 36.1 15.6 11.9 53.5- 3.3 1.0---- 0.0------------
1994-07-26 25.9 36.4 12.4 10.8 50.8- 2.3 0.0---- 0.0------------
1994-07-25 25.0 34.9 12.5 9.5 51.5- 1.3 1.0---- 0.0------------
1994-07-24 23.7 32.7 11.9 9.2 55.0- 1.7 0.3---- 0.0------------
1994-07-23 21.9 31.4 10.2 7.3 56.0- 0.3 1.0---- 0.0------------
1994-07-22 22.0 31.2 10.2 7.7 56.8- 0.3 0.3---- 0.0------------
1994-07-21 21.1 29.2 9.8 7.4 60.0- 0.0 1.3---- 0.0------------
1994-07-20 20.0 25.6 11.4 8.4 58.3- 1.3 2.0---- 0.0------------
1994-07-19 18.9 23.9 16.4 14.7 73.3- 7.3 1.3---- 0.0------------
1994-07-18 21.2 26.5 14.8 13.5 77.5- 7.3 1.3---- 0.0------------
1994-07-17 21.7 30.0 15.6 14.3 82.3- 8.0 0.3---- 2.0------------
1994-07-16 22.6 32.0 16.8 13.8 77.0- 3.7 1.7---- 10.5------------
1994-07-15 24.3 31.5 14.1 11.8 60.8- 4.3 2.7---- 0.0------------
1994-07-14 24.4 32.7 13.1 10.7 61.3- 3.7 0.3---- 0.0------------
1994-07-13 23.1 30.5 12.1 9.8 58.3- 3.3 4.3---- 0.0------------
1994-07-12 22.8 28.6 16.3 8.5 67.5- 4.3 3.0---- 0.0------------
1994-07-11 21.3 29.0 13.6 11.4 68.0- 4.3 2.0---- 0.0------------
1994-07-10 18.8 24.4 14.2 14.2 79.3- 6.3 2.3---- 2.1------------
1994-07-09 15.9 20.7 14.2 13.5 84.3- 7.7 5.0---- 2.0------------
1994-07-08 16.4 20.6 12.2 11.3 71.3- 5.3 5.7---- 0.2------------
1994-07-07 19.8 27.4 13.6 11.5 73.0- 6.7 0.3---- 4.0------------
1994-07-06 20.9 28.7 11.2 9.8 66.5- 4.0 1.0---- 0.0------------
1994-07-05 21.1 28.7 14.8 12.7 68.3- 5.7 0.3---- 0.0------------
1994-07-04 22.6 32.2 11.3 9.7 58.3- 1.3 1.0---- 0.0------------
1994-07-03 20.8 30.3 9.6 8.0 58.8- 0.0 0.7---- 0.0------------
1994-07-02 19.1 27.2 9.0 8.1 62.8- 0.0 1.0---- 0.0------------
1994-07-01 19.0 25.1 11.4 9.3 66.3- 2.3 2.0---- 0.0------------
1994-06-30 20.6 29.9 19.0 17.2 89.0- 7.3 1.3---- 5.7------------
1994-06-29 27.4 35.8 18.3 15.3 67.0- 2.7 2.0---- 0.0------------
1994-06-28 26.3 33.4 17.7 15.9 67.8- 5.3 1.0---- 0.0------------
1994-06-27 26.7 34.5 17.1 15.1 66.5- 2.7 1.0---- 0.0------------
1994-06-26 23.2 33.4 9.4 6.6 62.0- 1.3 1.7---- 0.0------------
1994-06-25 17.3 27.2 3.5 2.0 55.8- 0.0 1.0---- 0.0------------
1994-06-24 15.4 22.7 6.4 4.2 57.0- 0.0 2.0---- 0.0------------
1994-06-23 17.8 21.6 14.4 11.3 52.8- 1.3 5.0---- 0.0------------
1994-06-22 18.2 27.4 7.8 7.5 77.8- 6.3 3.3---- 0.2------------
1994-06-21 17.5 24.4 8.0 6.2 63.5- 1.3 0.7---- 0.0------------
1994-06-20 17.0 22.5 12.6 9.5 74.0- 7.3 3.0---- 0.0------------
1994-06-19 18.8 27.0 12.4 12.2 69.3- 5.7 1.0---- 0.0------------
1994-06-18 12.4 21.4 2.3 1.3 80.0- 7.7 2.3---- 5.3------------
1994-06-17 11.8 16.1 7.7 8.0 69.5- 6.0 3.3---- 0.0------------
1994-06-16 11.3 16.6 4.9 4.3 80.8- 5.0 3.7---- 4.8------------
340.1 ms

 

Źródłem pochodzenia danych jest Instytut Meteorologii i Gospodarki Wodnej – Państwowy Instytut Badawczy. Dane Instytutu Meteorologii i Gospodarki Wodnej – Państwowego Instytutu Badawczego zostały przetworzone.

Dane źródłowe można odnaleźć na stronie https://dane.imgw.pl